Time;durP1;ratioP1;P1;durP2;ratioP2;P2;SDS_P1;SDS_P2;PMS_P1;PMS_P2;Temp;Humidity;BMP_temperature;BMP_pressure;BME280_temperature;BME280_humidity;BME280_pressure;Samples;Min_cycle;Max_cycle;Signal;HPM_P1;HPM_P2
2021/04/11 00:00:50;;;;;;;12.65;7.05;;;10.40;44.70;;;;;;5112917;28;20046;-76
2021/04/11 00:03:21;;;;;;;12.07;6.82;;;10.30;44.70;;;;;;5113178;28;20036;-76
2021/04/11 00:05:48;;;;;;;12.90;7.05;;;10.30;44.70;;;;;;5112881;28;20039;-76
2021/04/11 00:08:15;;;;;;;14.07;7.45;;;10.30;44.80;;;;;;5115173;28;20036;-78
2021/04/11 00:10:45;;;;;;;13.80;7.90;;;10.30;44.80;;;;;;5099422;28;20036;-78
2021/04/11 00:13:20;;;;;;;11.43;6.65;;;10.30;45.00;;;;;;5117277;28;20035;-77
2021/04/11 00:15:46;;;;;;;11.05;7.13;;;10.30;45.50;;;;;;5117381;28;20035;-78
2021/04/11 00:18:13;;;;;;;14.00;6.93;;;10.30;44.90;;;;;;5117007;28;20475;-77
2021/04/11 00:20:39;;;;;;;11.25;7.45;;;10.30;44.90;;;;;;5116804;28;20084;-79
2021/04/11 00:23:05;;;;;;;16.88;7.30;;;10.20;44.90;;;;;;5117505;28;20113;-78
2021/04/11 00:25:34;;;;;;;14.68;7.22;;;10.30;45.00;;;;;;5098842;28;20035;-79
2021/04/11 00:28:00;;;;;;;12.25;7.25;;;10.30;45.00;;;;;;5098621;28;20043;-79
2021/04/11 00:30:27;;;;;;;12.55;8.05;;;10.20;44.90;;;;;;5116465;28;20496;-78
2021/04/11 00:32:55;;;;;;;14.05;7.72;;;10.30;45.00;;;;;;5116853;28;20069;-77
2021/04/11 00:35:21;;;;;;;14.63;7.53;;;10.20;45.00;;;;;;5098487;28;20035;-78
2021/04/11 00:37:48;;;;;;;11.85;7.47;;;10.20;45.00;;;;;;5117084;28;20071;-78
2021/04/11 00:40:26;;;;;;;13.75;7.28;;;10.30;45.10;;;;;;5117879;28;20422;-80
2021/04/11 00:42:57;;;;;;;12.00;6.82;;;10.20;45.10;;;;;;5099029;28;20485;-78
2021/04/11 00:45:46;;;;;;;11.82;6.75;;;10.20;45.20;;;;;;5116377;28;20377;-78
2021/04/11 00:48:16;;;;;;;17.23;7.95;;;10.20;45.30;;;;;;5116690;28;20393;-78
2021/04/11 00:50:50;;;;;;;11.77;7.60;;;10.20;45.30;;;;;;5116428;28;20062;-77
2021/04/11 00:53:16;;;;;;;17.42;7.53;;;10.20;45.30;;;;;;5098816;28;20061;-79
2021/04/11 00:55:42;;;;;;;14.82;8.43;;;10.10;45.30;;;;;;5118407;28;20122;-79
2021/04/11 00:58:09;;;;;;;14.60;7.53;;;10.10;45.30;;;;;;5100365;28;20039;-78
2021/04/11 01:00:37;;;;;;;13.63;7.13;;;10.10;45.30;;;;;;5118960;28;20085;-82
2021/04/11 01:03:05;;;;;;;15.93;8.00;;;10.10;45.40;;;;;;5121387;28;20039;-83
2021/04/11 01:05:35;;;;;;;13.77;7.40;;;10.10;45.40;;;;;;5121268;28;20035;-81
2021/04/11 01:08:10;;;;;;;15.82;7.43;;;10.10;45.50;;;;;;5120685;28;20058;-81
2021/04/11 01:10:51;;;;;;;10.90;6.90;;;10.10;45.50;;;;;;5102164;28;20024;-79
2021/04/11 01:13:19;;;;;;;15.98;7.57;;;10.10;45.60;;;;;;5117429;28;20042;-78
2021/04/11 01:15:47;;;;;;;14.00;7.70;;;10.00;45.60;;;;;;5098930;28;20104;-79
2021/04/11 01:18:14;;;;;;;17.67;7.47;;;10.00;45.60;;;;;;5099298;28;20414;-80
2021/04/11 01:20:40;;;;;;;17.45;7.40;;;10.00;45.70;;;;;;5116125;28;20496;-79
2021/04/11 01:23:16;;;;;;;13.90;7.38;;;10.00;45.80;;;;;;5099058;28;20054;-80
2021/04/11 01:25:43;;;;;;;14.68;7.25;;;10.00;45.80;;;;;;5117348;28;20046;-80
2021/04/11 01:28:22;;;;;;;14.13;8.13;;;9.90;46.40;;;;;;5098817;28;20088;-80
2021/04/11 01:30:52;;;;;;;15.75;7.22;;;9.90;45.80;;;;;;5099306;28;20039;-79
2021/04/11 01:33:21;;;;;;;14.98;7.88;;;10.00;45.80;;;;;;5100008;28;20059;-83
2021/04/11 01:35:52;;;;;;;14.50;7.82;;;10.00;45.80;;;;;;5119500;28;20059;-80
2021/04/11 01:38:19;;;;;;;14.32;8.00;;;9.90;45.80;;;;;;5118171;28;20023;-80
2021/04/11 01:41:02;;;;;;;11.38;7.65;;;9.90;45.90;;;;;;5099446;28;20035;-80
2021/04/11 01:43:28;;;;;;;15.23;9.02;;;9.90;45.90;;;;;;5098888;28;20115;-79
2021/04/11 01:45:55;;;;;;;16.70;10.00;;;9.90;45.90;;;;;;5116251;28;20032;-78
2021/04/11 01:48:22;;;;;;;16.60;10.07;;;9.80;45.90;;;;;;5116310;28;20507;-79
2021/04/11 01:50:49;;;;;;;18.15;11.63;;;9.80;45.90;;;;;;5097875;28;20032;-77
2021/04/11 01:53:18;;;;;;;17.85;12.35;;;9.90;46.00;;;;;;5115010;28;20093;-78
2021/04/11 01:55:45;;;;;;;21.83;13.00;;;9.90;46.10;;;;;;5096550;28;20514;-78
2021/04/11 01:58:12;;;;;;;21.50;13.10;;;9.80;46.10;;;;;;5096954;28;20039;-78
2021/04/11 02:00:49;;;;;;;18.23;12.48;;;9.80;46.10;;;;;;5097428;28;20420;-78
2021/04/11 02:03:19;;;;;;;25.90;14.65;;;9.80;46.10;;;;;;5080386;28;20130;-78
2021/04/11 02:05:47;;;;;;;25.55;16.33;;;9.80;46.20;;;;;;5097332;28;20036;-79
2021/04/11 02:08:24;;;;;;;26.65;17.45;;;9.70;46.30;;;;;;5096914;28;20032;-79
2021/04/11 02:10:55;;;;;;;36.92;23.85;;;9.70;46.30;;;;;;5114754;28;20519;-79
2021/04/11 02:13:25;;;;;;;40.63;25.83;;;9.70;46.30;;;;;;5096821;28;20059;-79
2021/04/11 02:15:57;;;;;;;45.67;26.58;;;9.70;46.50;;;;;;5096515;28;20046;-79
2021/04/11 02:18:26;;;;;;;43.05;24.27;;;9.70;46.50;;;;;;5114893;28;20561;-78
2021/04/11 02:20:57;;;;;;;37.83;20.63;;;9.60;46.50;;;;;;5096505;28;20027;-79
2021/04/11 02:23:26;;;;;;;36.13;19.77;;;9.60;46.60;;;;;;5099676;28;20035;-82
2021/04/11 02:25:54;;;;;;;34.10;17.70;;;9.60;46.70;;;;;;5119930;28;20087;-81
2021/04/11 02:28:25;;;;;;;27.17;14.93;;;9.60;46.80;;;;;;5121281;28;20491;-83
2021/04/11 02:31:16;;;;;;;25.83;15.38;;;9.50;46.80;;;;;;5119194;28;20036;-79
2021/04/11 02:33:48;;;;;;;26.27;14.30;;;9.60;47.00;;;;;;5108886;28;20055;-81
2021/04/11 02:36:19;;;;;;;25.83;14.48;;;9.60;47.00;;;;;;5122474;28;20047;-80
2021/04/11 02:38:47;;;;;;;33.83;14.05;;;9.60;47.10;;;;;;5099458;28;20027;-79
2021/04/11 02:41:14;;;;;;;23.17;13.20;;;9.50;47.10;;;;;;5117441;28;20039;-81
2021/04/11 02:43:43;;;;;;;24.17;12.77;;;9.50;47.10;;;;;;5118382;28;20135;-81
2021/04/11 02:46:12;;;;;;;21.90;12.85;;;9.50;47.10;;;;;;5117478;28;20046;-81
2021/04/11 02:48:38;;;;;;;22.77;12.25;;;9.50;47.10;;;;;;5099228;28;20130;-80
2021/04/11 02:51:15;;;;;;;21.40;13.07;;;9.50;47.10;;;;;;5098865;28;20047;-79
2021/04/11 02:53:47;;;;;;;23.90;12.00;;;9.50;47.10;;;;;;5082530;28;20046;-79
2021/04/11 02:56:23;;;;;;;;;;;9.50;47.20;;;;;;5098865;28;20062;-79
2021/04/11 02:58:51;;;;;;;22.65;12.05;;;9.50;47.20;;;;;;5081566;28;19916;-78
2021/04/11 03:01:30;;;;;;;18.67;11.20;;;9.50;47.20;;;;;;5098053;28;20050;-78
2021/04/11 03:03:56;;;;;;;19.80;11.30;;;9.50;47.20;;;;;;5097673;28;20028;-78
2021/04/11 03:06:27;;;;;;;21.63;11.43;;;9.50;47.20;;;;;;5097411;28;20130;-78
2021/04/11 03:08:59;;;;;;;18.83;11.55;;;9.50;47.20;;;;;;5116853;28;20027;-80
2021/04/11 03:11:53;;;;;;;17.52;10.90;;;9.60;47.20;;;;;;5117320;28;20095;-80
2021/04/11 03:14:33;;;;;;;19.73;11.02;;;9.50;47.10;;;;;;5116935;28;20032;-78
2021/04/11 03:17:11;;;;;;;15.93;9.73;;;9.50;47.20;;;;;;5115710;28;20058;-79
2021/04/11 03:19:44;;;;;;;19.55;11.00;;;9.50;47.20;;;;;;5080608;28;20508;-79
2021/04/11 03:22:11;;;;;;;16.33;10.32;;;9.50;47.50;;;;;;5096730;28;20399;-78
2021/04/11 03:24:38;;;;;;;19.45;10.45;;;9.50;47.20;;;;;;5115521;28;20401;-79
2021/04/11 03:27:16;;;;;;;16.95;9.68;;;9.50;47.10;;;;;;5099423;28;20031;-81
2021/04/11 03:30:09;;;;;;;14.90;9.23;;;9.60;47.20;;;;;;5097330;28;20126;-77
2021/04/11 03:32:59;;;;;;;17.48;10.05;;;9.60;47.20;;;;;;5097817;28;20040;-78
2021/04/11 03:35:28;;;;;;;18.45;10.27;;;9.60;47.10;;;;;;5097571;28;20032;-76
2021/04/11 03:38:00;;;;;;;16.08;9.65;;;9.60;47.10;;;;;;5096457;28;20035;-78
2021/04/11 03:40:31;;;;;;;14.10;8.85;;;9.60;47.10;;;;;;5095738;28;20095;-79
2021/04/11 03:43:12;;;;;;;23.08;10.32;;;9.60;47.10;;;;;;5113109;28;20035;-79
2021/04/11 03:45:41;;;;;;;15.75;9.88;;;9.60;47.10;;;;;;5096308;28;20518;-77
2021/04/11 03:48:29;;;;;;;15.73;9.02;;;9.70;47.10;;;;;;5096128;28;20059;-79
2021/04/11 03:51:11;;;;;;;12.77;8.32;;;9.70;47.10;;;;;;5095881;28;20047;-78
2021/04/11 03:53:41;;;;;;;14.48;9.40;;;9.70;47.00;;;;;;5095852;28;20038;-78
2021/04/11 03:56:11;;;;;;;16.75;9.80;;;9.70;47.10;;;;;;5114320;28;20036;-78
2021/04/11 03:58:50;;;;;;;18.02;9.15;;;9.70;47.10;;;;;;5096807;28;20044;-79
2021/04/11 04:01:41;;;;;;;17.40;9.20;;;9.80;47.10;;;;;;5113572;28;20042;-77
2021/04/11 04:04:14;;;;;;;15.82;8.70;;;9.80;47.00;;;;;;5115288;28;20044;-79
2021/04/11 04:07:08;;;;;;;14.57;8.98;;;9.90;47.00;;;;;;5096947;28;20514;-77
2021/04/11 04:09:35;;;;;;;17.75;9.40;;;9.90;47.00;;;;;;5102821;28;20047;-78
2021/04/11 04:12:13;;;;;;;15.20;9.05;;;9.90;46.80;;;;;;5114829;28;20038;-78
2021/04/11 04:14:52;;;;;;;16.67;9.20;;;9.90;46.80;;;;;;5096608;28;20042;-78
2021/04/11 04:17:25;;;;;;;17.15;9.55;;;10.00;46.70;;;;;;5115032;28;20136;-79
2021/04/11 04:20:23;;;;;;;14.82;9.00;;;10.00;46.60;;;;;;5096018;28;20134;-78
2021/04/11 04:23:12;;;;;;;17.00;8.90;;;10.00;46.50;;;;;;5096033;28;20034;-78
2021/04/11 04:26:02;;;;;;;16.17;9.55;;;10.10;46.50;;;;;;5114508;28;20067;-79
2021/04/11 04:28:47;;;;;;;20.25;9.35;;;10.20;46.40;;;;;;5095632;28;20554;-77
2021/04/11 04:31:47;;;;;;;14.30;8.65;;;10.20;46.40;;;;;;5095860;28;20396;-81
2021/04/11 04:34:22;;;;;;;15.60;9.23;;;10.30;46.30;;;;;;5097354;28;20046;-80
2021/04/11 04:37:05;;;;;;;13.82;8.73;;;10.30;46.30;;;;;;5096210;28;20142;-80
2021/04/11 04:39:58;;;;;;;15.50;8.77;;;10.30;46.10;;;;;;5096104;28;20384;-78
2021/04/11 04:42:56;;;;;;;12.77;8.77;;;10.40;46.10;;;;;;5095236;28;20391;-78
2021/04/11 04:45:38;;;;;;;15.27;9.27;;;10.50;46.00;;;;;;5078530;28;20077;-78
2021/04/11 04:48:33;;;;;;;16.20;8.80;;;10.60;46.00;;;;;;5094796;28;20622;-77
2021/04/11 04:51:20;;;;;;;14.93;9.07;;;10.60;46.10;;;;;;5095804;28;20164;-80
2021/04/11 04:54:06;;;;;;;13.32;8.32;;;10.90;46.10;;;;;;5094707;28;20078;-79
2021/04/11 04:56:47;;;;;;;13.15;7.85;;;11.30;45.80;;;;;;5082959;28;20035;-79
2021/04/11 04:59:21;;;;;;;11.40;8.38;;;11.60;44.70;;;;;;5098213;28;20032;-79
2021/04/11 05:02:06;;;;;;;14.00;8.45;;;12.00;43.90;;;;;;5116255;28;20039;-78
2021/04/11 05:04:50;;;;;;;13.20;8.07;;;12.50;43.10;;;;;;5082880;28;20032;-77
2021/04/11 05:07:24;;;;;;;12.57;8.15;;;13.00;42.50;;;;;;5116145;28;20032;-77
2021/04/11 05:10:08;;;;;;;14.82;8.80;;;13.40;42.00;;;;;;5081564;28;20384;-77
2021/04/11 05:12:57;;;;;;;15.73;9.00;;;13.90;40.90;;;;;;5097318;28;20032;-77
2021/04/11 05:15:30;;;;;;;10.02;7.80;;;14.40;40.60;;;;;;5096717;28;20031;-77
2021/04/11 05:18:36;;;;;;;10.90;8.30;;;14.90;39.40;;;;;;5080826;28;20050;-77
2021/04/11 05:21:25;;;;;;;15.32;8.30;;;15.50;38.60;;;;;;5115207;28;20043;-76
2021/04/11 05:24:14;;;;;;;9.77;7.95;;;16.10;38.10;;;;;;5096022;28;20095;-77
2021/04/11 05:26:52;;;;;;;10.45;8.13;;;16.60;36.90;;;;;;5115643;28;20105;-75
2021/04/11 05:29:38;;;;;;;12.77;8.87;;;17.10;36.80;;;;;;5097058;28;20062;-76
2021/04/11 05:32:04;;;;;;;11.48;7.78;;;17.50;35.70;;;;;;5116110;28;20274;-78
2021/04/11 05:34:31;;;;;;;14.10;8.15;;;18.00;35.40;;;;;;5115535;28;20092;-76
2021/04/11 05:37:41;;;;;;;12.52;8.20;;;18.30;35.20;;;;;;5114890;28;20055;-77
2021/04/11 05:40:18;;;;;;;10.27;7.20;;;18.70;34.40;;;;;;5097413;28;20042;-76
2021/04/11 05:43:04;;;;;;;14.90;8.70;;;19.10;34.10;;;;;;5115951;28;20027;-76
2021/04/11 05:45:49;;;;;;;9.52;7.68;;;19.60;34.10;;;;;;5080056;28;20040;-76
2021/04/11 05:48:23;;;;;;;13.30;8.45;;;20.00;33.30;;;;;;5096593;28;20377;-75
2021/04/11 05:51:11;;;;;;;10.63;7.47;;;20.30;33.50;;;;;;5097030;28;20051;-77
2021/04/11 05:53:46;;;;;;;14.00;7.90;;;20.60;32.80;;;;;;5116884;28;20047;-76
2021/04/11 05:56:36;;;;;;;12.40;8.95;;;21.00;33.20;;;;;;5115465;28;20082;-74
2021/04/11 05:59:06;;;;;;;10.68;9.18;;;21.50;32.90;;;;;;5097896;28;20044;-73
2021/04/11 06:01:42;;;;;;;15.02;8.75;;;21.90;32.80;;;;;;5097171;28;20031;-75
2021/04/11 06:04:18;;;;;;;;;;;22.20;32.40;;;;;;5116683;28;20038;-75
2021/04/11 06:06:47;;;;;;;15.38;9.48;;;22.60;30.80;;;;;;5115027;28;20384;-76
2021/04/11 06:09:39;;;;;;;12.07;8.40;;;22.80;31.30;;;;;;5098762;28;20399;-74
2021/04/11 06:12:10;;;;;;;14.82;8.77;;;23.00;31.50;;;;;;5114920;28;20039;-70
2021/04/11 06:15:01;;;;;;;11.60;8.85;;;23.20;31.30;;;;;;5096591;28;20508;-71
2021/04/11 06:17:29;;;;;;;15.10;9.20;;;23.30;31.00;;;;;;5115144;28;20071;-73
2021/04/11 06:19:55;;;;;;;12.63;8.75;;;23.50;30.90;;;;;;5096497;28;20036;-74
2021/04/11 06:22:35;;;;;;;15.20;9.50;;;23.70;30.40;;;;;;5096321;28;20054;-77
2021/04/11 06:25:13;;;;;;;14.93;10.13;;;23.90;30.00;;;;;;5114675;28;20035;-71
2021/04/11 06:28:24;;;;;;;13.52;9.82;;;24.10;30.10;;;;;;5096669;28;20039;-72
2021/04/11 06:31:03;;;;;;;14.98;8.38;;;24.20;29.50;;;;;;5114666;28;20067;-70
2021/04/11 06:33:48;;;;;;;17.23;9.60;;;24.40;29.90;;;;;;5114309;28;20078;-70
2021/04/11 06:36:36;;;;;;;15.00;9.90;;;24.50;29.10;;;;;;5114419;28;20150;-68
2021/04/11 06:39:24;;;;;;;14.40;8.88;;;24.60;29.60;;;;;;5114472;28;20043;-70
2021/04/11 06:42:14;;;;;;;14.35;9.55;;;24.70;29.90;;;;;;5114332;28;20032;-69
2021/04/11 06:44:47;;;;;;;16.90;8.57;;;24.90;29.60;;;;;;5114239;28;20075;-69
2021/04/11 06:47:35;;;;;;;16.15;9.95;;;25.10;29.60;;;;;;5114026;28;20126;-68
2021/04/11 06:50:00;;;;;;;17.38;9.23;;;25.20;29.10;;;;;;5114421;28;20501;-69
2021/04/11 06:52:35;;;;;;;14.32;9.45;;;25.30;29.10;;;;;;5113930;28;20036;-69
2021/04/11 06:55:33;;;;;;;14.07;9.38;;;25.50;28.80;;;;;;5114108;28;20035;-69
2021/04/11 06:58:24;;;;;;;19.58;9.98;;;25.60;29.10;;;;;;5100411;28;20079;-69
2021/04/11 07:01:26;;;;;;;18.15;10.15;;;25.60;28.80;;;;;;5113899;28;20053;-76
2021/04/11 07:04:11;;;;;;;19.83;8.48;;;25.80;29.10;;;;;;5114232;28;20032;-76
2021/04/11 07:06:39;;;;;;;17.97;9.47;;;26.20;31.20;;;;;;5114212;28;20065;-71
2021/04/11 07:09:33;;;;;;;21.38;9.43;;;26.30;31.60;;;;;;5095820;28;20042;-70
2021/04/11 07:12:17;;;;;;;14.65;9.13;;;26.40;30.00;;;;;;5088013;28;20079;-70
2021/04/11 07:15:14;;;;;;;17.67;9.45;;;26.40;29.30;;;;;;5095416;28;20047;-70
2021/04/11 07:17:58;;;;;;;14.73;10.07;;;26.40;29.10;;;;;;5095348;28;20058;-70
2021/04/11 07:20:47;;;;;;;14.77;9.82;;;26.40;28.70;;;;;;5113838;28;20084;-71
2021/04/11 07:23:37;;;;;;;16.13;10.25;;;26.40;28.70;;;;;;5113699;28;20028;-70
2021/04/11 07:26:35;;;;;;;18.75;9.80;;;26.30;28.20;;;;;;5113553;28;20042;-68
2021/04/11 07:29:39;;;;;;;11.85;9.75;;;26.40;28.70;;;;;;5041017;28;20055;-69
2021/04/11 07:32:36;;;;;;;13.65;10.48;;;26.30;28.90;;;;;;5094653;28;20039;-69
2021/04/11 07:35:40;;;;;;;15.40;10.43;;;26.30;28.60;;;;;;5078053;28;20028;-69
2021/04/11 07:38:15;;;;;;;17.75;10.25;;;26.30;28.10;;;;;;5113057;28;20130;-71
2021/04/11 07:41:05;;;;;;;17.30;11.15;;;26.20;28.20;;;;;;5113558;28;20043;-70
2021/04/11 07:43:46;;;;;;;17.80;10.98;;;26.20;28.30;;;;;;5112889;28;20119;-71
2021/04/11 07:46:46;;;;;;;17.20;9.75;;;26.20;29.00;;;;;;5097377;28;20518;-74
2021/04/11 07:49:34;;;;;;;17.38;9.93;;;26.20;31.50;;;;;;5114187;28;20424;-77
2021/04/11 07:52:21;;;;;;;16.77;8.88;;;26.20;29.70;;;;;;5116492;28;20035;-80
2021/04/11 07:55:06;;;;;;;18.30;9.27;;;26.00;29.40;;;;;;5118022;28;20037;-72
2021/04/11 07:57:44;;;;;;;14.23;8.73;;;25.90;31.30;;;;;;5122624;28;20040;-76
2021/04/11 08:00:28;;;;;;;13.27;8.95;;;25.90;33.20;;;;;;5122341;28;20092;-76
2021/04/11 08:03:12;;;;;;;13.60;8.55;;;25.90;33.20;;;;;;5122724;28;20039;-81
2021/04/11 08:06:09;;;;;;;15.27;8.07;;;25.90;33.60;;;;;;5123501;28;20039;-79
2021/04/11 08:09:07;;;;;;;11.65;8.07;;;25.90;33.90;;;;;;5122725;28;20046;-82
2021/04/11 08:11:58;;;;;;;13.73;7.95;;;25.80;33.10;;;;;;5118155;28;20040;-69
2021/04/11 08:14:26;;;;;;;12.98;8.10;;;25.70;32.20;;;;;;5113509;28;20031;-69
2021/04/11 08:17:05;;;;;;;18.02;8.75;;;25.70;33.60;;;;;;5112505;28;20450;-68
2021/04/11 08:19:46;;;;;;;16.50;8.65;;;25.60;34.70;;;;;;5094755;28;20456;-71
2021/04/11 08:22:39;;;;;;;16.48;8.20;;;25.60;33.70;;;;;;5112407;28;20031;-71
2021/04/11 08:25:39;;;;;;;15.30;7.32;;;25.50;31.90;;;;;;5112602;28;20038;-77
2021/04/11 08:28:36;;;;;;;13.95;7.43;;;25.50;32.40;;;;;;5111423;28;20078;-77
2021/04/11 08:31:27;;;;;;;13.93;7.18;;;25.40;31.00;;;;;;5116699;28;20035;-76
2021/04/11 08:34:02;;;;;;;11.52;7.40;;;25.30;30.20;;;;;;5117446;28;20089;-78
2021/04/11 08:36:57;;;;;;;11.27;7.00;;;25.30;29.80;;;;;;5116370;28;20059;-77
2021/04/11 08:39:39;;;;;;;14.18;7.40;;;25.10;29.50;;;;;;5026223;28;20045;-76
2021/04/11 08:42:43;;;;;;;12.82;7.20;;;25.00;29.90;;;;;;5116581;28;20420;-76
2021/04/11 08:45:42;;;;;;;10.65;6.78;;;25.00;29.20;;;;;;5014042;28;20045;-76
2021/04/11 08:48:26;;;;;;;9.07;6.40;;;24.80;29.30;;;;;;5116110;28;20035;-76
2021/04/11 08:51:04;;;;;;;10.25;7.07;;;24.70;29.50;;;;;;5116484;28;20036;-76
2021/04/11 08:53:38;;;;;;;10.20;6.40;;;24.70;29.60;;;;;;5116269;28;20050;-76
2021/04/11 08:56:31;;;;;;;10.05;6.63;;;24.60;29.70;;;;;;5115893;28;20499;-75
2021/04/11 08:59:14;;;;;;;11.65;6.82;;;24.50;29.50;;;;;;5116463;28;20443;-76
2021/04/11 09:01:48;;;;;;;12.85;7.45;;;24.50;29.70;;;;;;5116275;28;20066;-77
2021/04/11 09:04:38;;;;;;;12.43;6.90;;;24.40;29.70;;;;;;5116842;28;20035;-75
2021/04/11 09:07:22;;;;;;;9.95;6.60;;;24.40;29.60;;;;;;5099669;28;20040;-76
2021/04/11 09:10:11;;;;;;;9.35;5.70;;;24.20;30.00;;;;;;5116024;28;20039;-77
2021/04/11 09:12:46;;;;;;;11.70;6.22;;;24.10;30.00;;;;;;5115915;28;20126;-75
2021/04/11 09:15:27;;;;;;;8.82;6.30;;;24.00;29.80;;;;;;5097637;28;20080;-76
2021/04/11 09:18:24;;;;;;;9.82;6.53;;;23.90;29.90;;;;;;5116239;28;20040;-76
2021/04/11 09:20:58;;;;;;;7.68;6.05;;;23.80;30.00;;;;;;5115901;28;20073;-77
2021/04/11 09:23:45;;;;;;;8.37;6.23;;;23.60;29.70;;;;;;5115887;28;20043;-76
2021/04/11 09:26:35;;;;;;;11.13;6.82;;;23.40;30.10;;;;;;5115836;28;20372;-77
2021/04/11 09:29:33;;;;;;;11.45;7.00;;;23.30;29.80;;;;;;5115857;28;20080;-76
2021/04/11 09:32:21;;;;;;;10.23;6.28;;;23.10;29.30;;;;;;5026726;28;20048;-77
2021/04/11 09:35:18;;;;;;;11.05;6.97;;;23.10;29.80;;;;;;5097589;28;20043;-77
2021/04/11 09:38:19;;;;;;;10.15;6.88;;;23.00;30.00;;;;;;5115236;28;20404;-76
2021/04/11 09:41:03;;;;;;;16.42;7.47;;;22.90;30.30;;;;;;5060514;28;20062;-77
2021/04/11 09:44:00;;;;;;;14.82;7.07;;;22.80;30.30;;;;;;5115360;28;20055;-78
2021/04/11 09:46:50;;;;;;;10.10;5.93;;;22.50;29.80;;;;;;5115678;28;20122;-77
2021/04/11 09:49:42;;;;;;;9.45;7.03;;;22.40;30.60;;;;;;5115505;28;20038;-77
2021/04/11 09:52:26;;;;;;;9.88;6.47;;;22.30;30.50;;;;;;5115225;28;20027;-78
2021/04/11 09:55:19;;;;;;;7.70;6.55;;;22.20;30.70;;;;;;5115141;28;20122;-78
2021/04/11 09:58:09;;;;;;;11.10;6.40;;;22.10;30.80;;;;;;5110937;28;20051;-77
2021/04/11 10:00:41;;;;;;;9.82;5.80;;;21.90;30.90;;;;;;5115091;28;20518;-76
2021/04/11 10:03:13;;;;;;;10.02;5.47;;;21.90;31.70;;;;;;5114902;28;20034;-77
2021/04/11 10:06:02;;;;;;;8.73;6.22;;;21.80;31.50;;;;;;5114946;28;20403;-77
2021/04/11 10:08:42;;;;;;;10.18;6.45;;;21.60;30.40;;;;;;5115412;28;20104;-75
2021/04/11 10:11:17;;;;;;;10.50;6.82;;;21.30;30.90;;;;;;5115127;28;20048;-76
2021/04/11 10:13:46;;;;;;;10.27;6.22;;;21.20;31.10;;;;;;5096377;28;20032;-77
2021/04/11 10:16:15;;;;;;;8.23;6.05;;;21.10;31.20;;;;;;5114652;28;20039;-77
2021/04/11 10:18:44;;;;;;;7.97;5.95;;;20.90;31.40;;;;;;5114714;28;20051;-77
2021/04/11 10:21:31;;;;;;;9.75;6.82;;;20.90;31.30;;;;;;5114270;28;20108;-77
2021/04/11 10:24:39;;;;;;;9.07;6.78;;;20.80;31.60;;;;;;5114700;28;20054;-76
2021/04/11 10:27:05;;;;;;;8.43;5.60;;;20.80;31.90;;;;;;5066486;28;20046;-76
2021/04/11 10:29:35;;;;;;;10.48;6.13;;;20.70;32.10;;;;;;5113886;28;20032;-77
2021/04/11 10:32:27;;;;;;;9.77;6.82;;;20.70;32.10;;;;;;5114153;28;20046;-76
2021/04/11 10:35:28;;;;;;;9.52;6.70;;;20.60;32.20;;;;;;5114163;28;20035;-77
2021/04/11 10:37:58;;;;;;;11.75;7.40;;;20.60;32.50;;;;;;5028421;28;20055;-76
2021/04/11 10:40:39;;;;;;;9.82;6.88;;;20.50;32.60;;;;;;5114243;28;20043;-76
2021/04/11 10:43:20;;;;;;;8.65;6.47;;;20.40;32.80;;;;;;5114169;28;20032;-76
2021/04/11 10:46:11;;;;;;;8.38;6.20;;;20.40;32.70;;;;;;5114244;28;20036;-77
2021/04/11 10:48:53;;;;;;;9.15;5.90;;;20.30;32.60;;;;;;5100040;28;20500;-76
2021/04/11 10:51:28;;;;;;;7.57;6.10;;;20.30;32.40;;;;;;5078891;28;20035;-77
2021/04/11 10:54:09;;;;;;;11.32;7.03;;;20.10;32.50;;;;;;5113461;28;20119;-76
2021/04/11 10:56:34;;;;;;;12.20;6.47;;;20.00;32.60;;;;;;5113722;28;20081;-78
2021/04/11 10:59:09;;;;;;;12.07;7.03;;;20.00;32.80;;;;;;5113559;28;20046;-76
2021/04/11 11:02:09;;;;;;;9.90;6.60;;;20.00;33.00;;;;;;5113680;28;20564;-78
2021/04/11 11:04:50;;;;;;;10.65;6.65;;;20.00;33.40;;;;;;5113976;28;20411;-76
2021/04/11 11:07:39;;;;;;;9.82;6.63;;;20.00;33.00;;;;;;5113803;28;20031;-77
2021/04/11 11:10:27;;;;;;;6.80;6.00;;;19.80;32.50;;;;;;5113857;28;20047;-77
2021/04/11 11:13:28;;;;;;;7.70;5.75;;;19.70;32.80;;;;;;5113675;28;20036;-77
2021/04/11 11:16:07;;;;;;;11.68;6.38;;;19.70;33.10;;;;;;5113648;28;20081;-78
2021/04/11 11:19:10;;;;;;;11.20;6.78;;;19.70;33.40;;;;;;5113710;28;20100;-78
2021/04/11 11:21:45;;;;;;;10.85;6.43;;;19.80;33.60;;;;;;5113709;28;20031;-75
2021/04/11 11:24:46;;;;;;;14.35;6.28;;;19.70;33.40;;;;;;5113891;28;20046;-76
2021/04/11 11:27:11;;;;;;;7.35;6.53;;;19.70;33.70;;;;;;5094857;28;20119;-77
2021/04/11 11:30:07;;;;;;;11.40;6.50;;;19.70;33.60;;;;;;5112894;28;20169;-76
2021/04/11 11:32:45;;;;;;;11.55;7.13;;;19.70;34.10;;;;;;5112853;28;20452;-76
2021/04/11 11:35:14;;;;;;;11.65;6.35;;;19.70;34.00;;;;;;5094525;28;20503;-77
2021/04/11 11:37:55;;;;;;;11.80;6.60;;;19.60;33.70;;;;;;5113284;28;20116;-76
2021/04/11 11:40:33;;;;;;;9.63;6.57;;;19.70;33.50;;;;;;5112396;28;20088;-76
2021/04/11 11:43:09;;;;;;;9.82;6.82;;;19.60;33.70;;;;;;5113176;28;20044;-76
2021/04/11 11:45:44;;;;;;;8.68;6.85;;;19.70;33.70;;;;;;5094833;28;20535;-77
2021/04/11 11:48:19;;;;;;;10.07;6.43;;;19.60;33.10;;;;;;5113115;28;20031;-76
2021/04/11 11:50:54;;;;;;;9.68;6.95;;;19.50;32.80;;;;;;5112991;28;20042;-76
2021/04/11 11:53:26;;;;;;;10.80;7.07;;;19.50;33.00;;;;;;5112769;28;20054;-79
2021/04/11 11:56:27;;;;;;;11.25;5.97;;;19.40;33.20;;;;;;5112828;28;20076;-78
2021/04/11 11:59:31;;;;;;;11.68;6.93;;;19.40;33.30;;;;;;5090543;28;20115;-77
2021/04/11 12:02:13;;;;;;;11.93;6.82;;;19.50;33.80;;;;;;5090718;28;20051;-77
2021/04/11 12:04:47;;;;;;;11.40;6.78;;;19.50;33.90;;;;;;5098565;28;20043;-77
2021/04/11 12:07:26;;;;;;;9.90;7.10;;;19.50;34.10;;;;;;5117253;28;20036;-75
2021/04/11 12:10:18;;;;;;;8.30;6.35;;;19.40;33.90;;;;;;5118982;28;20035;-81
2021/04/11 12:13:23;;;;;;;9.18;5.80;;;19.40;34.00;;;;;;5071176;28;20051;-73
2021/04/11 12:16:20;;;;;;;8.35;6.10;;;19.30;33.60;;;;;;5069786;28;20067;-74
2021/04/11 12:19:05;;;;;;;10.20;6.05;;;19.30;33.80;;;;;;5117611;28;20086;-81
2021/04/11 12:21:39;;;;;;;9.57;6.22;;;19.30;34.10;;;;;;5116627;28;20546;-77
2021/04/11 12:24:12;;;;;;;12.13;6.60;;;19.30;34.40;;;;;;5117263;28;20081;-75
2021/04/11 12:26:55;;;;;;;10.93;6.60;;;19.30;34.60;;;;;;5118175;28;20039;-78
2021/04/11 12:29:34;;;;;;;10.25;6.10;;;19.40;35.10;;;;;;5117458;28;20043;-79
2021/04/11 12:32:24;;;;;;;9.43;6.03;;;19.30;34.70;;;;;;5117305;28;20043;-79
2021/04/11 12:35:22;;;;;;;8.07;6.05;;;19.40;34.70;;;;;;5117399;28;20065;-79
2021/04/11 12:37:55;;;;;;;7.85;6.30;;;19.30;34.30;;;;;;5106651;28;20055;-76
2021/04/11 12:40:24;;;;;;;9.88;7.30;;;19.30;33.90;;;;;;5118482;28;20134;-83
2021/04/11 12:43:08;;;;;;;10.00;7.00;;;19.30;34.00;;;;;;5102124;28;20031;-86
2021/04/11 12:45:46;;;;;;;12.00;6.80;;;19.30;34.20;;;;;;5099826;28;20192;-81
2021/04/11 12:48:21;;;;;;;13.93;6.35;;;19.40;34.60;;;;;;5102050;28;20488;-81
2021/04/11 12:50:55;;;;;;;10.85;6.40;;;19.40;34.20;;;;;;5098018;28;20035;-78
2021/04/11 12:53:47;;;;;;;10.90;6.93;;;19.40;33.90;;;;;;5116197;28;20511;-77
2021/04/11 12:56:17;;;;;;;8.35;6.63;;;19.40;34.50;;;;;;5105378;28;20051;-75
2021/04/11 12:58:54;;;;;;;10.35;7.13;;;19.40;34.70;;;;;;5116519;28;20066;-74
2021/04/11 13:01:26;;;;;;;8.20;6.80;;;19.40;34.60;;;;;;5100368;28;20035;-77
2021/04/11 13:03:52;;;;;;;10.40;6.60;;;19.30;34.40;;;;;;5116572;28;20035;-78
2021/04/11 13:06:46;;;;;;;10.73;6.93;;;19.30;34.20;;;;;;5116320;28;20045;-78
2021/04/11 13:09:56;;;;;;;12.45;7.13;;;19.30;34.20;;;;;;5116901;28;20586;-79
2021/04/11 13:12:37;;;;;;;9.70;6.38;;;19.20;33.80;;;;;;5093482;28;20067;-79
2021/04/11 13:15:21;;;;;;;9.32;6.70;;;19.20;33.80;;;;;;5097067;28;20126;-81
2021/04/11 13:18:07;;;;;;;7.72;6.00;;;19.20;33.90;;;;;;5098392;28;20074;-84
2021/04/11 13:20:53;;;;;;;8.70;6.38;;;19.20;34.10;;;;;;5097844;28;20124;-78
2021/04/11 13:23:30;;;;;;;9.73;5.90;;;19.20;34.10;;;;;;5064217;28;20043;-77
2021/04/11 13:26:11;;;;;;;8.05;5.82;;;19.20;34.30;;;;;;5115522;28;20047;-73
2021/04/11 13:28:48;;;;;;;13.45;6.60;;;19.10;33.80;;;;;;5115580;28;20032;-75
2021/04/11 13:31:51;;;;;;;7.20;5.97;;;19.10;33.60;;;;;;5115411;28;20050;-74
2021/04/11 13:34:23;;;;;;;7.85;6.18;;;19.10;33.80;;;;;;5115383;28;20063;-75
2021/04/11 13:36:51;;;;;;;6.85;5.60;;;19.10;33.90;;;;;;5115566;28;20154;-74
2021/04/11 13:39:34;;;;;;;11.38;6.55;;;19.10;33.90;;;;;;5115031;28;20043;-77
2021/04/11 13:42:09;;;;;;;11.00;7.00;;;19.10;34.20;;;;;;5115224;28;20609;-77
2021/04/11 13:44:54;;;;;;;12.43;6.90;;;19.10;34.50;;;;;;5115131;28;20039;-76
2021/04/11 13:47:41;;;;;;;11.80;6.90;;;19.20;34.50;;;;;;5097061;28;20040;-76